sensor_id;sensor_type;location;lat;lon;timestamp;P1;durP1;ratioP1;P2;durP2;ratioP2
48861;SDS011;34681;49.188;-0.374;2023-06-01T00:01:32;44.57;;;28.43;;
48861;SDS011;34681;49.188;-0.374;2023-06-01T00:04:01;47.53;;;34.60;;
48861;SDS011;34681;49.188;-0.374;2023-06-01T00:06:26;52.13;;;34.97;;
48861;SDS011;34681;49.188;-0.374;2023-06-01T00:08:55;55.83;;;36.10;;
48861;SDS011;34681;49.188;-0.374;2023-06-01T00:11:21;46.50;;;33.07;;
48861;SDS011;34681;49.188;-0.374;2023-06-01T00:13:46;44.97;;;34.23;;
48861;SDS011;34681;49.188;-0.374;2023-06-01T00:16:13;46.73;;;32.80;;
48861;SDS011;34681;49.188;-0.374;2023-06-01T00:18:39;46.33;;;33.63;;
48861;SDS011;34681;49.188;-0.374;2023-06-01T00:21:04;45.20;;;33.03;;
48861;SDS011;34681;49.188;-0.374;2023-06-01T00:23:29;45.47;;;34.10;;
48861;SDS011;34681;49.188;-0.374;2023-06-01T00:25:55;46.23;;;33.33;;
48861;SDS011;34681;49.188;-0.374;2023-06-01T00:28:20;47.47;;;31.37;;
48861;SDS011;34681;49.188;-0.374;2023-06-01T00:30:46;53.23;;;35.03;;
48861;SDS011;34681;49.188;-0.374;2023-06-01T00:33:11;65.80;;;35.50;;
48861;SDS011;34681;49.188;-0.374;2023-06-01T00:35:36;49.63;;;36.40;;
48861;SDS011;34681;49.188;-0.374;2023-06-01T00:38:02;40.70;;;28.67;;
48861;SDS011;34681;49.188;-0.374;2023-06-01T00:40:27;46.93;;;31.77;;
48861;SDS011;34681;49.188;-0.374;2023-06-01T00:42:52;44.37;;;29.10;;
48861;SDS011;34681;49.188;-0.374;2023-06-01T00:45:18;46.73;;;30.97;;
48861;SDS011;34681;49.188;-0.374;2023-06-01T00:47:43;55.10;;;36.70;;
48861;SDS011;34681;49.188;-0.374;2023-06-01T00:50:11;45.83;;;33.47;;
48861;SDS011;34681;49.188;-0.374;2023-06-01T00:52:37;51.60;;;36.17;;
48861;SDS011;34681;49.188;-0.374;2023-06-01T00:55:04;66.70;;;44.67;;
48861;SDS011;34681;49.188;-0.374;2023-06-01T00:57:30;57.50;;;40.83;;
48861;SDS011;34681;49.188;-0.374;2023-06-01T00:59:55;52.07;;;37.30;;
48861;SDS011;34681;49.188;-0.374;2023-06-01T01:02:22;61.93;;;44.47;;
48861;SDS011;34681;49.188;-0.374;2023-06-01T01:04:48;54.13;;;40.40;;
48861;SDS011;34681;49.188;-0.374;2023-06-01T01:07:38;60.07;;;40.67;;
48861;SDS011;34681;49.188;-0.374;2023-06-01T01:10:25;54.97;;;37.40;;
48861;SDS011;34681;49.188;-0.374;2023-06-01T01:13:03;53.17;;;41.00;;
48861;SDS011;34681;49.188;-0.374;2023-06-01T01:15:57;54.13;;;39.63;;
48861;SDS011;34681;49.188;-0.374;2023-06-01T01:18:31;54.87;;;36.57;;
48861;SDS011;34681;49.188;-0.374;2023-06-01T01:21:02;49.03;;;34.67;;
48861;SDS011;34681;49.188;-0.374;2023-06-01T01:23:47;51.53;;;34.53;;
48861;SDS011;34681;49.188;-0.374;2023-06-01T01:26:36;50.23;;;34.80;;
48861;SDS011;34681;49.188;-0.374;2023-06-01T01:29:15;50.90;;;36.83;;
48861;SDS011;34681;49.188;-0.374;2023-06-01T01:31:41;46.00;;;32.93;;
48861;SDS011;34681;49.188;-0.374;2023-06-01T01:34:07;42.20;;;30.30;;
48861;SDS011;34681;49.188;-0.374;2023-06-01T01:36:34;40.80;;;30.50;;
48861;SDS011;34681;49.188;-0.374;2023-06-01T01:39:01;51.57;;;30.57;;
48861;SDS011;34681;49.188;-0.374;2023-06-01T01:41:27;44.57;;;29.00;;
48861;SDS011;34681;49.188;-0.374;2023-06-01T01:43:52;38.03;;;28.27;;
48861;SDS011;34681;49.188;-0.374;2023-06-01T01:46:22;43.33;;;30.57;;
48861;SDS011;34681;49.188;-0.374;2023-06-01T01:49:16;56.27;;;32.13;;
48861;SDS011;34681;49.188;-0.374;2023-06-01T01:54:50;54.47;;;32.80;;
48861;SDS011;34681;49.188;-0.374;2023-06-01T01:57:17;51.23;;;35.47;;
48861;SDS011;34681;49.188;-0.374;2023-06-01T01:59:43;42.80;;;31.30;;
48861;SDS011;34681;49.188;-0.374;2023-06-01T02:02:10;54.00;;;35.00;;
48861;SDS011;34681;49.188;-0.374;2023-06-01T02:04:42;53.60;;;40.53;;
48861;SDS011;34681;49.188;-0.374;2023-06-01T02:07:09;56.80;;;43.10;;
48861;SDS011;34681;49.188;-0.374;2023-06-01T02:09:35;67.30;;;45.37;;
48861;SDS011;34681;49.188;-0.374;2023-06-01T02:12:01;55.73;;;39.47;;
48861;SDS011;34681;49.188;-0.374;2023-06-01T02:14:27;58.90;;;42.47;;
48861;SDS011;34681;49.188;-0.374;2023-06-01T02:16:53;61.83;;;43.20;;
48861;SDS011;34681;49.188;-0.374;2023-06-01T02:19:20;53.70;;;40.20;;
48861;SDS011;34681;49.188;-0.374;2023-06-01T02:21:45;52.37;;;41.60;;
48861;SDS011;34681;49.188;-0.374;2023-06-01T02:24:11;52.97;;;37.10;;
48861;SDS011;34681;49.188;-0.374;2023-06-01T02:26:36;63.37;;;39.40;;
48861;SDS011;34681;49.188;-0.374;2023-06-01T02:29:02;61.90;;;43.97;;
48861;SDS011;34681;49.188;-0.374;2023-06-01T02:31:29;62.60;;;45.90;;
48861;SDS011;34681;49.188;-0.374;2023-06-01T02:33:55;59.90;;;42.57;;
48861;SDS011;34681;49.188;-0.374;2023-06-01T02:36:20;69.77;;;43.87;;
48861;SDS011;34681;49.188;-0.374;2023-06-01T02:38:46;75.63;;;53.67;;
48861;SDS011;34681;49.188;-0.374;2023-06-01T02:41:12;68.20;;;46.50;;
48861;SDS011;34681;49.188;-0.374;2023-06-01T02:43:37;63.67;;;45.27;;
48861;SDS011;34681;49.188;-0.374;2023-06-01T02:46:03;64.70;;;46.80;;
48861;SDS011;34681;49.188;-0.374;2023-06-01T02:48:28;62.37;;;41.00;;
48861;SDS011;34681;49.188;-0.374;2023-06-01T02:50:54;55.00;;;44.70;;
48861;SDS011;34681;49.188;-0.374;2023-06-01T02:53:20;67.13;;;45.53;;
48861;SDS011;34681;49.188;-0.374;2023-06-01T02:55:45;61.97;;;43.80;;
48861;SDS011;34681;49.188;-0.374;2023-06-01T02:58:11;69.00;;;46.97;;
48861;SDS011;34681;49.188;-0.374;2023-06-01T03:00:41;63.43;;;44.50;;
48861;SDS011;34681;49.188;-0.374;2023-06-01T03:03:07;75.80;;;49.57;;
48861;SDS011;34681;49.188;-0.374;2023-06-01T03:05:33;70.30;;;47.70;;
48861;SDS011;34681;49.188;-0.374;2023-06-01T03:07:58;75.57;;;51.37;;
48861;SDS011;34681;49.188;-0.374;2023-06-01T03:10:24;74.17;;;51.97;;
48861;SDS011;34681;49.188;-0.374;2023-06-01T03:12:49;72.50;;;52.17;;
48861;SDS011;34681;49.188;-0.374;2023-06-01T03:15:14;73.53;;;51.20;;
48861;SDS011;34681;49.188;-0.374;2023-06-01T03:17:40;84.60;;;52.67;;
48861;SDS011;34681;49.188;-0.374;2023-06-01T03:20:06;72.07;;;51.93;;
48861;SDS011;34681;49.188;-0.374;2023-06-01T03:22:39;80.20;;;53.87;;
48861;SDS011;34681;49.188;-0.374;2023-06-01T03:25:06;80.17;;;50.00;;
48861;SDS011;34681;49.188;-0.374;2023-06-01T03:27:32;74.97;;;52.43;;
48861;SDS011;34681;49.188;-0.374;2023-06-01T03:29:57;74.37;;;52.37;;
48861;SDS011;34681;49.188;-0.374;2023-06-01T03:32:22;71.47;;;51.07;;
48861;SDS011;34681;49.188;-0.374;2023-06-01T03:34:48;70.20;;;51.00;;
48861;SDS011;34681;49.188;-0.374;2023-06-01T03:37:13;71.57;;;51.97;;
48861;SDS011;34681;49.188;-0.374;2023-06-01T03:39:39;66.03;;;51.17;;
48861;SDS011;34681;49.188;-0.374;2023-06-01T03:42:05;76.93;;;51.33;;
48861;SDS011;34681;49.188;-0.374;2023-06-01T03:44:32;75.47;;;51.93;;
48861;SDS011;34681;49.188;-0.374;2023-06-01T03:46:57;70.97;;;51.83;;
48861;SDS011;34681;49.188;-0.374;2023-06-01T03:49:22;75.87;;;51.23;;
48861;SDS011;34681;49.188;-0.374;2023-06-01T03:51:48;72.80;;;53.37;;
48861;SDS011;34681;49.188;-0.374;2023-06-01T03:54:13;81.80;;;54.70;;
48861;SDS011;34681;49.188;-0.374;2023-06-01T03:56:39;85.40;;;57.37;;
48861;SDS011;34681;49.188;-0.374;2023-06-01T03:59:05;78.13;;;51.10;;
48861;SDS011;34681;49.188;-0.374;2023-06-01T04:01:35;73.87;;;53.67;;
48861;SDS011;34681;49.188;-0.374;2023-06-01T04:04:03;78.20;;;51.60;;
48861;SDS011;34681;49.188;-0.374;2023-06-01T04:06:30;73.50;;;49.17;;
48861;SDS011;34681;49.188;-0.374;2023-06-01T04:09:00;77.80;;;53.20;;
48861;SDS011;34681;49.188;-0.374;2023-06-01T04:11:26;86.47;;;53.13;;
48861;SDS011;34681;49.188;-0.374;2023-06-01T04:13:51;75.23;;;54.13;;
48861;SDS011;34681;49.188;-0.374;2023-06-01T04:16:17;75.07;;;54.07;;
48861;SDS011;34681;49.188;-0.374;2023-06-01T04:18:43;79.80;;;53.73;;
48861;SDS011;34681;49.188;-0.374;2023-06-01T04:21:08;80.23;;;52.87;;
48861;SDS011;34681;49.188;-0.374;2023-06-01T04:23:34;74.23;;;50.97;;
48861;SDS011;34681;49.188;-0.374;2023-06-01T04:26:00;79.20;;;55.00;;
48861;SDS011;34681;49.188;-0.374;2023-06-01T04:28:27;72.47;;;50.23;;
48861;SDS011;34681;49.188;-0.374;2023-06-01T04:30:52;74.40;;;48.60;;
48861;SDS011;34681;49.188;-0.374;2023-06-01T04:33:19;75.80;;;52.80;;
48861;SDS011;34681;49.188;-0.374;2023-06-01T04:35:44;70.70;;;51.50;;
48861;SDS011;34681;49.188;-0.374;2023-06-01T04:38:10;66.13;;;48.00;;
48861;SDS011;34681;49.188;-0.374;2023-06-01T04:40:36;79.63;;;53.13;;
48861;SDS011;34681;49.188;-0.374;2023-06-01T04:43:02;84.23;;;57.10;;
48861;SDS011;34681;49.188;-0.374;2023-06-01T04:45:28;82.70;;;53.10;;
48861;SDS011;34681;49.188;-0.374;2023-06-01T04:47:58;73.93;;;51.80;;
48861;SDS011;34681;49.188;-0.374;2023-06-01T04:50:23;80.47;;;48.93;;
48861;SDS011;34681;49.188;-0.374;2023-06-01T04:52:48;81.13;;;55.67;;
48861;SDS011;34681;49.188;-0.374;2023-06-01T04:55:15;84.00;;;55.30;;
48861;SDS011;34681;49.188;-0.374;2023-06-01T04:57:41;73.50;;;50.53;;
48861;SDS011;34681;49.188;-0.374;2023-06-01T05:00:10;80.67;;;54.60;;
48861;SDS011;34681;49.188;-0.374;2023-06-01T05:02:38;73.33;;;51.27;;
48861;SDS011;34681;49.188;-0.374;2023-06-01T05:05:05;90.47;;;52.80;;
48861;SDS011;34681;49.188;-0.374;2023-06-01T05:07:32;78.30;;;51.20;;
48861;SDS011;34681;49.188;-0.374;2023-06-01T05:09:58;72.67;;;47.47;;
48861;SDS011;34681;49.188;-0.374;2023-06-01T05:12:28;77.07;;;49.53;;
48861;SDS011;34681;49.188;-0.374;2023-06-01T05:14:54;72.57;;;48.17;;
48861;SDS011;34681;49.188;-0.374;2023-06-01T05:17:19;70.90;;;46.93;;
48861;SDS011;34681;49.188;-0.374;2023-06-01T05:19:44;73.80;;;46.83;;
48861;SDS011;34681;49.188;-0.374;2023-06-01T05:22:10;73.30;;;46.03;;
48861;SDS011;34681;49.188;-0.374;2023-06-01T05:24:36;71.20;;;44.90;;
48861;SDS011;34681;49.188;-0.374;2023-06-01T05:27:02;74.13;;;45.33;;
48861;SDS011;34681;49.188;-0.374;2023-06-01T05:29:29;64.30;;;43.77;;
48861;SDS011;34681;49.188;-0.374;2023-06-01T05:31:55;63.47;;;46.07;;
48861;SDS011;34681;49.188;-0.374;2023-06-01T05:34:20;65.77;;;43.47;;
48861;SDS011;34681;49.188;-0.374;2023-06-01T05:36:46;67.70;;;43.50;;
48861;SDS011;34681;49.188;-0.374;2023-06-01T05:39:11;59.50;;;43.70;;
48861;SDS011;34681;49.188;-0.374;2023-06-01T05:41:37;62.00;;;43.60;;
48861;SDS011;34681;49.188;-0.374;2023-06-01T05:44:02;61.60;;;44.50;;
48861;SDS011;34681;49.188;-0.374;2023-06-01T05:46:28;55.53;;;44.17;;
48861;SDS011;34681;49.188;-0.374;2023-06-01T05:48:53;59.43;;;45.00;;
48861;SDS011;34681;49.188;-0.374;2023-06-01T05:51:20;70.60;;;47.03;;
48861;SDS011;34681;49.188;-0.374;2023-06-01T05:53:45;64.90;;;48.23;;
48861;SDS011;34681;49.188;-0.374;2023-06-01T05:56:10;74.47;;;46.97;;
48861;SDS011;34681;49.188;-0.374;2023-06-01T05:58:36;61.20;;;47.00;;
48861;SDS011;34681;49.188;-0.374;2023-06-01T06:01:01;71.30;;;46.47;;
48861;SDS011;34681;49.188;-0.374;2023-06-01T06:03:26;63.60;;;47.70;;
48861;SDS011;34681;49.188;-0.374;2023-06-01T06:05:52;61.50;;;46.50;;
48861;SDS011;34681;49.188;-0.374;2023-06-01T06:08:18;66.20;;;47.13;;
48861;SDS011;34681;49.188;-0.374;2023-06-01T06:10:43;65.50;;;48.40;;
48861;SDS011;34681;49.188;-0.374;2023-06-01T06:13:09;69.87;;;44.67;;
48861;SDS011;34681;49.188;-0.374;2023-06-01T06:15:35;64.37;;;45.50;;
48861;SDS011;34681;49.188;-0.374;2023-06-01T06:18:00;70.90;;;48.27;;
48861;SDS011;34681;49.188;-0.374;2023-06-01T06:20:26;71.97;;;49.17;;
48861;SDS011;34681;49.188;-0.374;2023-06-01T06:22:51;64.13;;;45.63;;
48861;SDS011;34681;49.188;-0.374;2023-06-01T06:25:17;60.63;;;41.83;;
48861;SDS011;34681;49.188;-0.374;2023-06-01T06:27:43;63.77;;;46.27;;
48861;SDS011;34681;49.188;-0.374;2023-06-01T06:30:08;58.87;;;44.30;;
48861;SDS011;34681;49.188;-0.374;2023-06-01T06:32:34;63.73;;;45.33;;
48861;SDS011;34681;49.188;-0.374;2023-06-01T06:35:00;62.87;;;45.23;;
48861;SDS011;34681;49.188;-0.374;2023-06-01T06:37:25;57.03;;;45.20;;
48861;SDS011;34681;49.188;-0.374;2023-06-01T06:39:51;58.73;;;40.50;;
48861;SDS011;34681;49.188;-0.374;2023-06-01T06:42:16;56.90;;;44.07;;
48861;SDS011;34681;49.188;-0.374;2023-06-01T06:44:41;59.03;;;43.27;;
48861;SDS011;34681;49.188;-0.374;2023-06-01T06:47:07;55.00;;;41.47;;
48861;SDS011;34681;49.188;-0.374;2023-06-01T06:49:32;54.93;;;42.57;;
48861;SDS011;34681;49.188;-0.374;2023-06-01T06:51:57;57.83;;;40.67;;
48861;SDS011;34681;49.188;-0.374;2023-06-01T06:54:23;58.33;;;39.70;;
48861;SDS011;34681;49.188;-0.374;2023-06-01T06:56:48;51.60;;;39.30;;
48861;SDS011;34681;49.188;-0.374;2023-06-01T06:59:14;52.73;;;39.50;;
48861;SDS011;34681;49.188;-0.374;2023-06-01T07:01:39;51.37;;;40.23;;
48861;SDS011;34681;49.188;-0.374;2023-06-01T07:04:05;55.50;;;42.13;;
48861;SDS011;34681;49.188;-0.374;2023-06-01T07:06:31;50.40;;;40.40;;
48861;SDS011;34681;49.188;-0.374;2023-06-01T07:09:00;63.27;;;43.50;;
48861;SDS011;34681;49.188;-0.374;2023-06-01T07:11:26;65.10;;;41.53;;
48861;SDS011;34681;49.188;-0.374;2023-06-01T07:13:55;52.87;;;42.03;;
48861;SDS011;34681;49.188;-0.374;2023-06-01T07:16:22;54.43;;;39.47;;
48861;SDS011;34681;49.188;-0.374;2023-06-01T07:18:49;53.37;;;39.43;;
48861;SDS011;34681;49.188;-0.374;2023-06-01T07:21:16;59.53;;;41.27;;
48861;SDS011;34681;49.188;-0.374;2023-06-01T07:23:41;54.13;;;41.73;;
48861;SDS011;34681;49.188;-0.374;2023-06-01T07:26:07;54.30;;;39.13;;
48861;SDS011;34681;49.188;-0.374;2023-06-01T07:28:33;56.60;;;38.40;;
48861;SDS011;34681;49.188;-0.374;2023-06-01T07:30:58;47.93;;;38.90;;
48861;SDS011;34681;49.188;-0.374;2023-06-01T07:33:24;49.67;;;39.43;;
48861;SDS011;34681;49.188;-0.374;2023-06-01T07:35:50;49.13;;;39.87;;
48861;SDS011;34681;49.188;-0.374;2023-06-01T07:38:18;40.07;;;31.97;;
48861;SDS011;34681;49.188;-0.374;2023-06-01T07:40:44;51.27;;;38.33;;
48861;SDS011;34681;49.188;-0.374;2023-06-01T07:43:09;41.27;;;34.40;;
48861;SDS011;34681;49.188;-0.374;2023-06-01T07:45:35;50.60;;;38.83;;
48861;SDS011;34681;49.188;-0.374;2023-06-01T07:48:00;53.13;;;35.80;;
48861;SDS011;34681;49.188;-0.374;2023-06-01T07:50:26;49.87;;;39.47;;
48861;SDS011;34681;49.188;-0.374;2023-06-01T07:52:55;47.10;;;37.87;;
48861;SDS011;34681;49.188;-0.374;2023-06-01T07:55:22;47.57;;;38.50;;
48861;SDS011;34681;49.188;-0.374;2023-06-01T07:57:47;59.43;;;39.97;;
48861;SDS011;34681;49.188;-0.374;2023-06-01T08:00:13;52.73;;;39.13;;
48861;SDS011;34681;49.188;-0.374;2023-06-01T08:02:38;54.20;;;39.83;;
48861;SDS011;34681;49.188;-0.374;2023-06-01T08:05:05;56.70;;;41.37;;
48861;SDS011;34681;49.188;-0.374;2023-06-01T08:07:31;49.83;;;40.80;;
48861;SDS011;34681;49.188;-0.374;2023-06-01T08:09:57;59.27;;;42.73;;
48861;SDS011;34681;49.188;-0.374;2023-06-01T08:12:23;64.30;;;43.77;;
48861;SDS011;34681;49.188;-0.374;2023-06-01T08:14:51;51.63;;;40.70;;
48861;SDS011;34681;49.188;-0.374;2023-06-01T14:09:28;27.13;;;13.40;;
48861;SDS011;34681;49.188;-0.374;2023-06-01T14:11:53;32.40;;;14.13;;
48861;SDS011;34681;49.188;-0.374;2023-06-01T14:14:18;21.47;;;15.00;;
48861;SDS011;34681;49.188;-0.374;2023-06-01T14:16:44;26.47;;;15.57;;
48861;SDS011;34681;49.188;-0.374;2023-06-01T14:19:09;24.73;;;15.30;;
48861;SDS011;34681;49.188;-0.374;2023-06-01T14:21:35;20.50;;;13.23;;
48861;SDS011;34681;49.188;-0.374;2023-06-01T14:24:01;24.07;;;14.20;;
48861;SDS011;34681;49.188;-0.374;2023-06-01T14:26:27;20.23;;;13.77;;
48861;SDS011;34681;49.188;-0.374;2023-06-01T14:28:53;18.47;;;13.27;;
48861;SDS011;34681;49.188;-0.374;2023-06-01T14:31:18;23.90;;;13.73;;
48861;SDS011;34681;49.188;-0.374;2023-06-01T14:33:44;25.30;;;14.10;;
48861;SDS011;34681;49.188;-0.374;2023-06-01T14:36:10;23.27;;;13.73;;
48861;SDS011;34681;49.188;-0.374;2023-06-01T14:38:35;24.27;;;12.90;;
48861;SDS011;34681;49.188;-0.374;2023-06-01T14:41:01;29.80;;;14.83;;
48861;SDS011;34681;49.188;-0.374;2023-06-01T14:43:26;22.23;;;13.70;;
48861;SDS011;34681;49.188;-0.374;2023-06-01T14:45:51;25.20;;;13.40;;
48861;SDS011;34681;49.188;-0.374;2023-06-01T14:48:17;25.73;;;13.93;;
48861;SDS011;34681;49.188;-0.374;2023-06-01T14:50:42;27.77;;;13.23;;
48861;SDS011;34681;49.188;-0.374;2023-06-01T14:53:07;28.77;;;12.97;;
48861;SDS011;34681;49.188;-0.374;2023-06-01T14:55:33;25.40;;;14.37;;
48861;SDS011;34681;49.188;-0.374;2023-06-01T14:57:58;23.53;;;14.47;;
48861;SDS011;34681;49.188;-0.374;2023-06-01T15:00:23;25.07;;;14.30;;
48861;SDS011;34681;49.188;-0.374;2023-06-01T15:02:49;25.33;;;14.40;;
48861;SDS011;34681;49.188;-0.374;2023-06-01T15:05:15;32.07;;;15.00;;
48861;SDS011;34681;49.188;-0.374;2023-06-01T15:07:40;23.03;;;13.90;;
48861;SDS011;34681;49.188;-0.374;2023-06-01T15:10:06;30.77;;;13.90;;
48861;SDS011;34681;49.188;-0.374;2023-06-01T15:12:31;26.10;;;12.80;;
48861;SDS011;34681;49.188;-0.374;2023-06-01T15:14:57;22.77;;;13.63;;
48861;SDS011;34681;49.188;-0.374;2023-06-01T15:17:22;27.97;;;12.80;;
48861;SDS011;34681;49.188;-0.374;2023-06-01T15:19:47;28.07;;;14.20;;
48861;SDS011;34681;49.188;-0.374;2023-06-01T15:22:13;21.73;;;13.37;;
48861;SDS011;34681;49.188;-0.374;2023-06-01T15:24:39;27.47;;;14.50;;
48861;SDS011;34681;49.188;-0.374;2023-06-01T15:27:05;25.10;;;13.27;;
48861;SDS011;34681;49.188;-0.374;2023-06-01T15:29:34;25.83;;;12.63;;
48861;SDS011;34681;49.188;-0.374;2023-06-01T15:32:00;24.87;;;12.53;;
48861;SDS011;34681;49.188;-0.374;2023-06-01T15:34:26;27.87;;;14.10;;
48861;SDS011;34681;49.188;-0.374;2023-06-01T15:36:52;24.40;;;13.97;;
48861;SDS011;34681;49.188;-0.374;2023-06-01T15:39:17;28.03;;;13.30;;
48861;SDS011;34681;49.188;-0.374;2023-06-01T15:41:42;27.50;;;12.60;;
48861;SDS011;34681;49.188;-0.374;2023-06-01T15:44:08;33.67;;;13.13;;
48861;SDS011;34681;49.188;-0.374;2023-06-01T15:46:33;25.03;;;13.27;;
48861;SDS011;34681;49.188;-0.374;2023-06-01T15:48:59;29.13;;;13.20;;
48861;SDS011;34681;49.188;-0.374;2023-06-01T15:51:25;27.67;;;13.40;;
48861;SDS011;34681;49.188;-0.374;2023-06-01T15:53:51;31.50;;;13.50;;
48861;SDS011;34681;49.188;-0.374;2023-06-01T15:56:17;27.43;;;13.20;;
48861;SDS011;34681;49.188;-0.374;2023-06-01T15:58:43;22.80;;;13.00;;
48861;SDS011;34681;49.188;-0.374;2023-06-01T16:01:08;26.97;;;14.20;;
48861;SDS011;34681;49.188;-0.374;2023-06-01T16:03:34;22.67;;;12.23;;
48861;SDS011;34681;49.188;-0.374;2023-06-01T16:05:59;27.10;;;12.90;;
48861;SDS011;34681;49.188;-0.374;2023-06-01T16:08:25;24.23;;;13.20;;
48861;SDS011;34681;49.188;-0.374;2023-06-01T16:10:50;29.37;;;12.50;;
48861;SDS011;34681;49.188;-0.374;2023-06-01T16:13:16;26.70;;;13.30;;
48861;SDS011;34681;49.188;-0.374;2023-06-01T16:15:41;20.07;;;11.77;;
48861;SDS011;34681;49.188;-0.374;2023-06-01T16:18:07;24.90;;;11.70;;
48861;SDS011;34681;49.188;-0.374;2023-06-01T16:20:32;22.17;;;12.17;;
48861;SDS011;34681;49.188;-0.374;2023-06-01T16:22:58;25.63;;;12.37;;
48861;SDS011;34681;49.188;-0.374;2023-06-01T16:25:23;18.93;;;11.60;;
48861;SDS011;34681;49.188;-0.374;2023-06-01T16:27:51;23.50;;;11.80;;
48861;SDS011;34681;49.188;-0.374;2023-06-01T16:30:17;19.77;;;11.77;;
48861;SDS011;34681;49.188;-0.374;2023-06-01T16:32:42;20.50;;;11.00;;
48861;SDS011;34681;49.188;-0.374;2023-06-01T16:35:07;17.63;;;11.87;;
48861;SDS011;34681;49.188;-0.374;2023-06-01T16:37:33;23.70;;;11.93;;
48861;SDS011;34681;49.188;-0.374;2023-06-01T16:39:58;20.43;;;11.17;;
48861;SDS011;34681;49.188;-0.374;2023-06-01T16:42:24;21.67;;;12.60;;
48861;SDS011;34681;49.188;-0.374;2023-06-01T16:44:49;27.77;;;12.20;;
48861;SDS011;34681;49.188;-0.374;2023-06-01T16:47:14;27.00;;;13.00;;
48861;SDS011;34681;49.188;-0.374;2023-06-01T16:49:40;30.50;;;11.87;;
48861;SDS011;34681;49.188;-0.374;2023-06-01T16:52:05;29.73;;;13.73;;
48861;SDS011;34681;49.188;-0.374;2023-06-01T16:54:31;25.10;;;11.73;;
48861;SDS011;34681;49.188;-0.374;2023-06-01T16:56:57;21.03;;;12.17;;
48861;SDS011;34681;49.188;-0.374;2023-06-01T16:59:22;27.73;;;12.73;;
48861;SDS011;34681;49.188;-0.374;2023-06-01T17:01:48;21.20;;;11.30;;
48861;SDS011;34681;49.188;-0.374;2023-06-01T17:04:13;23.90;;;13.20;;
48861;SDS011;34681;49.188;-0.374;2023-06-01T17:06:40;28.10;;;12.93;;
48861;SDS011;34681;49.188;-0.374;2023-06-01T17:09:06;29.67;;;13.90;;
48861;SDS011;34681;49.188;-0.374;2023-06-01T17:11:31;22.63;;;11.50;;
48861;SDS011;34681;49.188;-0.374;2023-06-01T17:13:57;27.30;;;12.27;;
48861;SDS011;34681;49.188;-0.374;2023-06-01T17:16:22;27.70;;;12.53;;
48861;SDS011;34681;49.188;-0.374;2023-06-01T17:18:47;17.10;;;11.13;;
48861;SDS011;34681;49.188;-0.374;2023-06-01T17:21:14;26.87;;;11.90;;
48861;SDS011;34681;49.188;-0.374;2023-06-01T17:23:39;32.60;;;12.70;;
48861;SDS011;34681;49.188;-0.374;2023-06-01T17:26:05;19.17;;;11.30;;
48861;SDS011;34681;49.188;-0.374;2023-06-01T17:28:30;24.03;;;11.20;;
48861;SDS011;34681;49.188;-0.374;2023-06-01T17:30:56;17.33;;;11.93;;
48861;SDS011;34681;49.188;-0.374;2023-06-01T17:33:22;22.87;;;10.47;;
48861;SDS011;34681;49.188;-0.374;2023-06-01T17:35:48;25.70;;;13.00;;
48861;SDS011;34681;49.188;-0.374;2023-06-01T17:38:13;20.00;;;10.50;;
48861;SDS011;34681;49.188;-0.374;2023-06-01T17:40:38;29.93;;;10.60;;
48861;SDS011;34681;49.188;-0.374;2023-06-01T17:43:04;26.37;;;11.83;;
48861;SDS011;34681;49.188;-0.374;2023-06-01T17:45:29;23.70;;;10.90;;
48861;SDS011;34681;49.188;-0.374;2023-06-01T17:47:55;27.27;;;12.07;;
48861;SDS011;34681;49.188;-0.374;2023-06-01T17:50:20;21.90;;;12.93;;
48861;SDS011;34681;49.188;-0.374;2023-06-01T17:52:46;19.77;;;12.20;;
48861;SDS011;34681;49.188;-0.374;2023-06-01T17:55:11;29.00;;;12.37;;
48861;SDS011;34681;49.188;-0.374;2023-06-01T17:57:37;20.77;;;12.00;;
48861;SDS011;34681;49.188;-0.374;2023-06-01T18:00:02;27.17;;;11.90;;
48861;SDS011;34681;49.188;-0.374;2023-06-01T18:02:28;24.07;;;12.07;;
48861;SDS011;34681;49.188;-0.374;2023-06-01T18:04:53;21.80;;;11.20;;
48861;SDS011;34681;49.188;-0.374;2023-06-01T18:07:18;27.00;;;12.27;;
48861;SDS011;34681;49.188;-0.374;2023-06-01T18:09:44;26.67;;;11.70;;
48861;SDS011;34681;49.188;-0.374;2023-06-01T18:12:10;21.53;;;10.80;;
48861;SDS011;34681;49.188;-0.374;2023-06-01T18:14:36;30.07;;;13.50;;
48861;SDS011;34681;49.188;-0.374;2023-06-01T18:17:01;20.27;;;10.97;;
48861;SDS011;34681;49.188;-0.374;2023-06-01T18:19:26;21.47;;;10.27;;
48861;SDS011;34681;49.188;-0.374;2023-06-01T18:21:52;32.90;;;11.40;;
48861;SDS011;34681;49.188;-0.374;2023-06-01T18:24:17;18.93;;;10.83;;
48861;SDS011;34681;49.188;-0.374;2023-06-01T18:26:42;24.60;;;11.13;;
48861;SDS011;34681;49.188;-0.374;2023-06-01T18:29:08;29.27;;;12.30;;
48861;SDS011;34681;49.188;-0.374;2023-06-01T18:31:33;34.60;;;11.80;;
48861;SDS011;34681;49.188;-0.374;2023-06-01T18:33:58;23.90;;;12.70;;
48861;SDS011;34681;49.188;-0.374;2023-06-01T18:36:24;19.97;;;11.20;;
48861;SDS011;34681;49.188;-0.374;2023-06-01T18:38:52;21.40;;;11.77;;
48861;SDS011;34681;49.188;-0.374;2023-06-01T18:41:17;29.47;;;13.33;;
48861;SDS011;34681;49.188;-0.374;2023-06-01T18:43:42;21.80;;;11.17;;
48861;SDS011;34681;49.188;-0.374;2023-06-01T18:46:08;32.07;;;11.87;;
48861;SDS011;34681;49.188;-0.374;2023-06-01T18:48:33;25.87;;;12.50;;
48861;SDS011;34681;49.188;-0.374;2023-06-01T18:50:58;29.80;;;12.30;;
48861;SDS011;34681;49.188;-0.374;2023-06-01T18:53:24;24.03;;;11.60;;
48861;SDS011;34681;49.188;-0.374;2023-06-01T18:55:50;23.23;;;11.93;;
48861;SDS011;34681;49.188;-0.374;2023-06-01T18:58:15;26.37;;;11.80;;
48861;SDS011;34681;49.188;-0.374;2023-06-01T19:00:41;24.17;;;12.40;;
48861;SDS011;34681;49.188;-0.374;2023-06-01T19:03:13;29.93;;;12.10;;
48861;SDS011;34681;49.188;-0.374;2023-06-01T19:05:39;39.13;;;13.00;;
48861;SDS011;34681;49.188;-0.374;2023-06-01T19:08:05;30.30;;;11.77;;
48861;SDS011;34681;49.188;-0.374;2023-06-01T19:16:03;27.23;;;12.43;;
48861;SDS011;34681;49.188;-0.374;2023-06-01T19:18:30;30.73;;;12.47;;
48861;SDS011;34681;49.188;-0.374;2023-06-01T19:21:11;24.83;;;11.83;;
48861;SDS011;34681;49.188;-0.374;2023-06-01T19:23:51;24.37;;;11.80;;
48861;SDS011;34681;49.188;-0.374;2023-06-01T19:26:19;22.00;;;10.60;;
48861;SDS011;34681;49.188;-0.374;2023-06-01T19:29:10;21.63;;;12.50;;
48861;SDS011;34681;49.188;-0.374;2023-06-01T19:31:41;37.43;;;11.80;;
48861;SDS011;34681;49.188;-0.374;2023-06-01T19:34:08;20.90;;;12.00;;
48861;SDS011;34681;49.188;-0.374;2023-06-01T19:39:06;27.07;;;10.43;;
48861;SDS011;34681;49.188;-0.374;2023-06-01T19:41:37;17.67;;;10.83;;
48861;SDS011;34681;49.188;-0.374;2023-06-01T19:44:03;26.07;;;12.13;;
48861;SDS011;34681;49.188;-0.374;2023-06-01T19:46:28;28.00;;;11.07;;
48861;SDS011;34681;49.188;-0.374;2023-06-01T19:48:54;25.40;;;10.70;;
48861;SDS011;34681;49.188;-0.374;2023-06-01T19:51:25;34.30;;;13.07;;
48861;SDS011;34681;49.188;-0.374;2023-06-01T19:53:55;25.27;;;10.77;;
48861;SDS011;34681;49.188;-0.374;2023-06-01T19:58:57;24.33;;;13.07;;
48861;SDS011;34681;49.188;-0.374;2023-06-01T20:01:28;22.20;;;11.53;;
48861;SDS011;34681;49.188;-0.374;2023-06-01T20:03:54;18.83;;;10.73;;
48861;SDS011;34681;49.188;-0.374;2023-06-01T20:06:21;21.67;;;9.30;;
48861;SDS011;34681;49.188;-0.374;2023-06-01T20:08:50;24.10;;;11.00;;
48861;SDS011;34681;49.188;-0.374;2023-06-01T20:11:16;20.60;;;11.27;;